Time;durP1;ratioP1;P1;durP2;ratioP2;P2;SDS_P1;SDS_P2;PMS_P1;PMS_P2;Temp;Humidity;BMP_temperature;BMP_pressure;BME280_temperature;BME280_humidity;BME280_pressure;Samples;Min_cycle;Max_cycle;Signal;HPM_P1;HPM_P2
2023/03/28 00:04:10;;;;;;;;;;;;;;;;;;10368232;28;1933;-75
2023/03/28 00:09:06;;;;;;;;;;;;;;;;;;10374109;28;869;-76
2023/03/28 00:14:02;;;;;;;;;;;;;;;;;;10374320;28;851;-75
2023/03/28 00:18:59;;;;;;;;;;;;;;;;;;10373381;28;920;-76
2023/03/28 00:23:55;;;;;;;;;;;;;;;;;;10373435;28;1941;-75
2023/03/28 00:28:50;;;;;;;;;;;;;;;;;;10373002;28;852;-75
2023/03/28 00:33:46;;;;;;;;;;;;;;;;;;10372569;28;869;-75
2023/03/28 00:38:42;;;;;;;;;;;;;;;;;;10371628;28;1120;-75
2023/03/28 00:43:38;;;;;;;;;;;;;;;;;;10372016;28;1965;-76
2023/03/28 00:48:34;;;;;;;;;;;;;;;;;;10372033;28;930;-76
2023/03/28 00:53:30;;;;;;;;;;;;;;;;;;10371764;28;817;-75
2023/03/28 00:58:26;;;;;;;;;;;;;;;;;;10372345;28;903;-75
2023/03/28 01:03:26;;;;;;;;;;;;;;;;;;10371992;28;1887;-75
2023/03/28 01:08:22;;;;;;;;;;;;;;;;;;10371164;28;876;-75
2023/03/28 01:13:18;;;;;;;;;;;;;;;;;;10370963;28;953;-76
2023/03/28 01:18:15;;;;;;;;;;;;;;;;;;10370657;28;783;-75
2023/03/28 01:23:11;;;;;;;;;;;;;;;;;;10371149;28;1882;-75
2023/03/28 01:28:06;;;;;;;;;;;;;;;;;;10370423;28;772;-75
2023/03/28 01:33:02;;;;;;;;;;;;;;;;;;10370888;28;1154;-76
2023/03/28 01:37:58;;;;;;;;;;;;;;;;;;10371554;28;838;-75
2023/03/28 01:42:54;;;;;;;;;;;;;;;;;;10370897;28;1905;-75
2023/03/28 01:47:50;;;;;;;;;;;;;;;;;;10369013;28;845;-75
2023/03/28 01:52:46;;;;;;;;;;;;;;;;;;10370104;28;826;-75
2023/03/28 01:57:42;;;;;;;;;;;;;;;;;;10368666;28;905;-75
2023/03/28 02:02:38;;;;;;;;;;;;;;;;;;10368991;28;1890;-76
2023/03/28 02:07:33;;;;;;;;;;;;;;;;;;10369528;28;958;-75
2023/03/28 02:12:29;;;;;;;;;;;;;;;;;;10369289;28;884;-75
2023/03/28 02:17:25;;;;;;;;;;;;;;;;;;10368885;28;781;-75
2023/03/28 02:22:21;;;;;;;;;;;;;;;;;;10368298;28;1947;-75
2023/03/28 02:27:17;;;;;;;;;;;;;;;;;;10367598;28;861;-75
2023/03/28 02:32:13;;;;;;;;;;;;;;;;;;10368128;28;877;-75
2023/03/28 02:37:09;;;;;;;;;;;;;;;;;;10367760;28;845;-75
2023/03/28 02:42:05;;;;;;;;;;;;;;;;;;10366705;28;1905;-75
2023/03/28 02:47:01;;;;;;;;;;;;;;;;;;10367682;28;820;-75
2023/03/28 02:51:57;;;;;;;;;;;;;;;;;;10366713;28;847;-76
2023/03/28 02:56:59;;;;;;;;;;;;;;;;;;10367700;28;791;-76
2023/03/28 03:01:55;;;;;;;;;;;;;;;;;;10367373;28;1941;-76
2023/03/28 03:06:51;;;;;;;;;;;;;;;;;;10367453;28;884;-75
2023/03/28 03:11:47;;;;;;;;;;;;;;;;;;10367285;28;888;-75
2023/03/28 03:16:43;;;;;;;;;;;;;;;;;;10367139;28;850;-75
2023/03/28 03:21:40;;;;;;;;;;;;;;;;;;10366416;28;1891;-75
2023/03/28 03:26:36;;;;;;;;;;;;;;;;;;10367235;28;862;-75
2023/03/28 03:31:31;;;;;;;;;;;;;;;;;;10366836;28;966;-76
2023/03/28 03:36:30;;;;;;;;;;;;;;;;;;10366148;28;946;-75
2023/03/28 03:41:26;;;;;;;;;;;;;;;;;;10374492;28;1905;-75
2023/03/28 03:46:22;;;;;;;;;;;;;;;;;;10373911;28;926;-75
2023/03/28 03:51:18;;;;;;;;;;;;;;;;;;10374397;28;823;-75
2023/03/28 03:56:14;;;;;;;;;;;;;;;;;;10374092;28;874;-76
2023/03/28 04:01:12;;;;;;;;;;;;;;;;;;10373865;28;1940;-75
2023/03/28 04:06:08;;;;;;;;;;;;;;;;;;10373705;28;862;-75
2023/03/28 04:11:04;;;;;;;;;;;;;;;;;;10372871;28;948;-75
2023/03/28 04:16:00;;;;;;;;;;;;;;;;;;10372753;28;934;-76
2023/03/28 04:20:56;;;;;;;;;;;;;;;;;;10373078;28;1941;-76
2023/03/28 04:25:54;;;;;;;;;;;;;;;;;;10373891;28;883;-75
2023/03/28 04:30:53;;;;;;;;;;;;;;;;;;10373333;28;949;-75
2023/03/28 04:35:50;;;;;;;;;;;;;;;;;;10372604;28;881;-75
2023/03/28 04:40:45;;;;;;;;;;;;;;;;;;10372597;28;1914;-75
2023/03/28 04:45:41;;;;;;;;;;;;;;;;;;10371771;28;1247;-75
2023/03/28 04:50:37;;;;;;;;;;;;;;;;;;10371493;28;827;-75
2023/03/28 04:55:33;;;;;;;;;;;;;;;;;;10371817;28;860;-76
2023/03/28 05:00:29;;;;;;;;;;;;;;;;;;10371585;28;1894;-75
2023/03/28 05:05:25;;;;;;;;;;;;;;;;;;10371367;28;769;-75
2023/03/28 05:10:20;;;;;;;;;;;;;;;;;;10371831;28;919;-75
2023/03/28 05:15:16;;;;;;;;;;;;;;;;;;10370675;28;973;-76
2023/03/28 05:20:13;;;;;;;;;;;;;;;;;;10370253;28;1887;-75
2023/03/28 05:25:09;;;;;;;;;;;;;;;;;;10371261;28;806;-75
2023/03/28 05:30:05;;;;;;;;;;;;;;;;;;10370442;28;938;-75
2023/03/28 05:35:01;;;;;;;;;;;;;;;;;;10370284;28;913;-75
2023/03/28 05:39:57;;;;;;;;;;;;;;;;;;10369663;28;1294;-77
2023/03/28 05:44:52;;;;;;;;;;;;;;;;;;10369582;28;1910;-75
2023/03/28 05:49:49;;;;;;;;;;;;;;;;;;10369078;28;866;-75
2023/03/28 05:54:44;;;;;;;;;;;;;;;;;;10369378;28;971;-76
2023/03/28 05:59:42;;;;;;;;;;;;;;;;;;10369961;28;984;-75
2023/03/28 06:04:38;;;;;;;;;;;;;;;;;;10368693;28;1890;-75
2023/03/28 06:09:34;;;;;;;;;;;;;;;;;;10369485;28;959;-77
2023/03/28 06:14:30;;;;;;;;;;;;;;;;;;10368711;28;852;-76
2023/03/28 06:19:26;;;;;;;;;;;;;;;;;;10368445;28;1166;-77
2023/03/28 06:24:22;;;;;;;;;;;;;;;;;;10368864;28;1935;-80
2023/03/28 06:29:18;;;;;;;;;;;;;;;;;;10368160;28;882;-74
2023/03/28 06:34:14;;;;;;;;;;;;;;;;;;10369299;28;847;-74
2023/03/28 06:39:10;;;;;;;;;;;;;;;;;;10367481;28;1509;-74
2023/03/28 06:44:06;;;;;;;;;;;;;;;;;;10367519;28;1971;-74
2023/03/28 06:49:01;;;;;;;;;;;;;;;;;;10367452;28;899;-75
2023/03/28 06:53:57;;;;;;;;;;;;;;;;;;10366699;28;914;-74
2023/03/28 06:58:53;;;;;;;;;;;;;;;;;;10367122;28;861;-75
2023/03/28 07:03:49;;;;;;;;;;;;;;;;;;10366296;28;1885;-75
2023/03/28 07:08:45;;;;;;;;;;;;;;;;;;10366880;28;812;-75
2023/03/28 07:13:41;;;;;;;;;;;;;;;;;;10366734;28;923;-76
2023/03/28 07:18:37;;;;;;;;;;;;;;;;;;10367286;28;864;-75
2023/03/28 07:23:33;;;;;;;;;;;;;;;;;;10366354;28;1885;-75
2023/03/28 07:28:29;;;;;;;;;;;;;;;;;;10366954;28;861;-75
2023/03/28 07:33:25;;;;;;;;;;;;;;;;;;10366284;28;898;-75
2023/03/28 07:38:21;;;;;;;;;;;;;;;;;;10366818;28;866;-75
2023/03/28 07:43:17;;;;;;;;;;;;;;;;;;10365691;28;1915;-75
2023/03/28 07:48:12;;;;;;;;;;;;;;;;;;10366611;28;787;-75
2023/03/28 07:53:08;;;;;;;;;;;;;;;;;;10365925;28;924;-69
2023/03/28 07:58:06;;;;;;;;;;;;;;;;;;10365824;28;768;-68
2023/03/28 08:03:02;;;;;;;;;;;;;;;;;;10365542;28;1898;-68
2023/03/28 08:07:58;;;;;;;;;;;;;;;;;;10365617;28;823;-69
2023/03/28 08:12:54;;;;;;;;;;;;;;;;;;10365445;28;902;-68
2023/03/28 08:17:50;;;;;;;;;;;;;;;;;;10365598;28;951;-68
2023/03/28 08:22:45;;;;;;;;;;;;;;;;;;10365245;28;1890;-69
2023/03/28 08:27:41;;;;;;;;;;;;;;;;;;10371850;28;893;-75
2023/03/28 08:32:37;;;;;;;;;;;;;;;;;;10373362;28;840;-75
2023/03/28 08:37:33;;;;;;;;;;;;;;;;;;10372559;28;926;-75
2023/03/28 08:42:29;;;;;;;;;;;;;;;;;;10372786;28;1921;-75
2023/03/28 08:47:25;;;;;;;;;;;;;;;;;;10372197;28;774;-74
2023/03/28 08:52:21;;;;;;;;;;;;;;;;;;10373226;28;855;-75
2023/03/28 08:57:17;;;;;;;;;;;;;;;;;;10373094;28;777;-74
2023/03/28 09:02:12;;;;;;;;;;;;;;;;;;10372162;28;1890;-74
2023/03/28 09:07:09;;;;;;;;;;;;;;;;;;10372046;28;815;-75
2023/03/28 09:12:05;;;;;;;;;;;;;;;;;;10371822;28;869;-74
2023/03/28 09:17:01;;;;;;;;;;;;;;;;;;10371097;28;854;-75
2023/03/28 09:21:57;;;;;;;;;;;;;;;;;;10370818;28;1949;-74
2023/03/28 09:26:53;;;;;;;;;;;;;;;;;;10370692;28;912;-74
2023/03/28 09:31:49;;;;;;;;;;;;;;;;;;10370495;28;945;-74
2023/03/28 09:36:45;;;;;;;;;;;;;;;;;;10370117;28;979;-75
2023/03/28 09:41:40;;;;;;;;;;;;;;;;;;10369710;28;1909;-75
2023/03/28 09:46:36;;;;;;;;;;;;;;;;;;10370481;28;887;-74
2023/03/28 09:51:32;;;;;;;;;;;;;;;;;;10370361;28;763;-75
2023/03/28 09:56:28;;;;;;;;;;;;;;;;;;10370269;28;873;-75
2023/03/28 10:01:25;;;;;;;;;;;;;;;;;;10369703;28;1882;-75
2023/03/28 10:06:20;;;;;;;;;;;;;;;;;;10369017;28;897;-74
2023/03/28 10:11:16;;;;;;;;;;;;;;;;;;10368865;28;967;-74
2023/03/28 10:16:12;;;;;;;;;;;;;;;;;;10368024;28;989;-75
2023/03/28 10:21:08;;;;;;;;;;;;;;;;;;10369069;28;1950;-74
2023/03/28 10:26:04;;;;;;;;;;;;;;;;;;10368943;28;945;-74
2023/03/28 10:31:00;;;;;;;;;;;;;;;;;;10368183;28;763;-75
2023/03/28 10:35:56;;;;;;;;;;;;;;;;;;10367943;28;954;-75
2023/03/28 10:40:52;;;;;;;;;;;;;;;;;;10367215;28;1981;-74
2023/03/28 10:45:51;;;;;;;;;;;;;;;;;;10368242;28;988;-74
2023/03/28 10:50:47;;;;;;;;;;;;;;;;;;10366934;28;868;-74
2023/03/28 10:55:45;;;;;;;;;;;;;;;;;;10366597;28;1089;-74
2023/03/28 11:00:41;;;;;;;;;;;;;;;;;;10367000;28;1913;-75
2023/03/28 11:05:37;;;;;;;;;;;;;;;;;;10367767;28;879;-75
2023/03/28 11:10:32;;;;;;;;;;;;;;;;;;10366726;28;991;-75
2023/03/28 11:15:28;;;;;;;;;;;;;;;;;;10366858;28;961;-75
2023/03/28 11:20:24;;;;;;;;;;;;;;;;;;10366514;28;1889;-74
2023/03/28 11:25:20;;;;;;;;;;;;;;;;;;10367060;28;772;-74
2023/03/28 11:30:16;;;;;;;;;;;;;;;;;;10366913;28;813;-74
2023/03/28 11:35:12;;;;;;;;;;;;;;;;;;10366335;28;884;-74
2023/03/28 11:40:10;;;;;;;;;;;;;;;;;;10365733;28;1339;-72
2023/03/28 11:45:06;;;;;;;;;;;;;;;;;;10367016;28;1910;-72
2023/03/28 11:50:02;;;;;;;;;;;;;;;;;;10365976;28;866;-73
2023/03/28 11:54:58;;;;;;;;;;;;;;;;;;10365914;28;839;-75
2023/03/28 11:59:54;;;;;;;;;;;;;;;;;;10367583;28;894;-75
2023/03/28 12:04:50;;;;;;;;;;;;;;;;;;10374399;28;1897;-68
2023/03/28 12:09:46;;;;;;;;;;;;;;;;;;10373756;28;784;-68
2023/03/28 12:14:43;;;;;;;;;;;;;;;;;;10373470;28;862;-68
2023/03/28 12:19:38;;;;;;;;;;;;;;;;;;10373347;28;843;-68
2023/03/28 12:24:34;;;;;;;;;;;;;;;;;;10372481;28;1947;-68
2023/03/28 12:29:30;;;;;;;;;;;;;;;;;;10372972;28;835;-68
2023/03/28 12:34:26;;;;;;;;;;;;;;;;;;10373050;28;917;-68
2023/03/28 12:39:23;;;;;;;;;;;;;;;;;;10372387;28;1497;-68
2023/03/28 12:44:19;;;;;;;;;;;;;;;;;;10372299;28;1910;-68
2023/03/28 12:49:15;;;;;;;;;;;;;;;;;;10372069;28;799;-68
2023/03/28 12:54:11;;;;;;;;;;;;;;;;;;10372394;28;864;-71
2023/03/28 12:59:06;;;;;;;;;;;;;;;;;;10371573;28;768;-70
2023/03/28 13:04:02;;;;;;;;;;;;;;;;;;10371837;28;1890;-70
2023/03/28 13:08:58;;;;;;;;;;;;;;;;;;10370649;28;926;-70
2023/03/28 13:13:54;;;;;;;;;;;;;;;;;;10370531;28;944;-71
2023/03/28 13:18:50;;;;;;;;;;;;;;;;;;10370754;28;877;-71
2023/03/28 13:23:46;;;;;;;;;;;;;;;;;;10369941;28;1890;-71
2023/03/28 13:28:42;;;;;;;;;;;;;;;;;;10370385;28;799;-71
2023/03/28 13:33:38;;;;;;;;;;;;;;;;;;10370773;28;802;-71
2023/03/28 13:38:34;;;;;;;;;;;;;;;;;;10370840;28;799;-71
2023/03/28 13:43:30;;;;;;;;;;;;;;;;;;10370929;28;1988;-71
2023/03/28 13:48:25;;;;;;;;;;;;;;;;;;10369650;28;764;-71
2023/03/28 13:53:21;;;;;;;;;;;;;;;;;;10370019;28;847;-71
2023/03/28 13:58:17;;;;;;;;;;;;;;;;;;10369451;28;866;-71
2023/03/28 14:03:13;;;;;;;;;;;;;;;;;;10369356;28;1949;-70
2023/03/28 14:08:09;;;;;;;;;;;;;;;;;;10369059;28;951;-71
2023/03/28 14:13:05;;;;;;;;;;;;;;;;;;10368956;28;831;-71
2023/03/28 14:18:01;;;;;;;;;;;;;;;;;;10368679;28;799;-71
2023/03/28 14:22:57;;;;;;;;;;;;;;;;;;10367693;28;1889;-71
2023/03/28 14:27:53;;;;;;;;;;;;;;;;;;10368923;28;853;-71
2023/03/28 14:32:49;;;;;;;;;;;;;;;;;;10368914;28;879;-71
2023/03/28 14:37:46;;;;;;;;;;;;;;;;;;10368603;28;837;-71
2023/03/28 14:42:42;;;;;;;;;;;;;;;;;;10368191;28;1918;-71
2023/03/28 14:47:38;;;;;;;;;;;;;;;;;;10367811;28;1047;-71
2023/03/28 14:52:36;;;;;;;;;;;;;;;;;;10367489;28;929;-71
2023/03/28 14:57:31;;;;;;;;;;;;;;;;;;10368251;28;860;-71
2023/03/28 15:02:27;;;;;;;;;;;;;;;;;;10367113;28;1956;-70
2023/03/28 15:07:25;;;;;;;;;;;;;;;;;;10367133;28;804;-71
2023/03/28 15:12:22;;;;;;;;;;;;;;;;;;10367466;28;842;-71
2023/03/28 15:17:18;;;;;;;;;;;;;;;;;;10367282;28;796;-71
2023/03/28 15:22:14;;;;;;;;;;;;;;;;;;10365948;28;1959;-70
2023/03/28 15:27:10;;;;;;;;;;;;;;;;;;10367061;28;941;-70
2023/03/28 15:32:06;;;;;;;;;;;;;;;;;;10366318;28;838;-71
2023/03/28 15:37:02;;;;;;;;;;;;;;;;;;10366108;28;846;-71
2023/03/28 15:41:58;;;;;;;;;;;;;;;;;;10366304;28;1983;-71
2023/03/28 15:46:54;;;;;;;;;;;;;;;;;;10366072;28;1305;-71
2023/03/28 15:51:49;;;;;;;;;;;;;;;;;;10365980;28;761;-71
2023/03/28 15:56:45;;;;;;;;;;;;;;;;;;10365818;28;1051;-71
2023/03/28 16:01:41;;;;;;;;;;;;;;;;;;10366327;28;1948;-71
2023/03/28 16:06:37;;;;;;;;;;;;;;;;;;10365708;28;860;-71
2023/03/28 16:11:34;;;;;;;;;;;;;;;;;;10366440;28;972;-71
2023/03/28 16:16:30;;;;;;;;;;;;;;;;;;10366162;28;853;-71
2023/03/28 16:21:25;;;;;;;;;;;;;;;;;;10365375;28;1890;-71
2023/03/28 16:26:21;;;;;;;;;;;;;;;;;;10366033;28;824;-71
2023/03/28 16:31:17;;;;;;;;;;;;;;;;;;10365870;28;880;-71
2023/03/28 16:36:13;;;;;;;;;;;;;;;;;;10365836;28;865;-71
2023/03/28 16:41:09;;;;;;;;;;;;;;;;;;10365011;28;1910;-71
2023/03/28 16:46:07;;;;;;;;;;;;;;;;;;10367378;28;858;-71
2023/03/28 16:51:06;;;;;;;;;;;;;;;;;;10372396;28;811;-71
2023/03/28 16:56:02;;;;;;;;;;;;;;;;;;10372623;28;878;-71
2023/03/28 17:00:58;;;;;;;;;;;;;;;;;;10371784;28;1949;-70
2023/03/28 17:05:54;;;;;;;;;;;;;;;;;;10372262;28;874;-70
2023/03/28 17:10:50;;;;;;;;;;;;;;;;;;10370835;28;1150;-70
2023/03/28 17:15:46;;;;;;;;;;;;;;;;;;10371211;28;965;-70
2023/03/28 17:20:42;;;;;;;;;;;;;;;;;;10371036;28;1886;-70
2023/03/28 17:25:38;;;;;;;;;;;;;;;;;;10370889;28;890;-70
2023/03/28 17:30:34;;;;;;;;;;;;;;;;;;10370697;28;897;-70
2023/03/28 17:35:30;;;;;;;;;;;;;;;;;;10370518;28;753;-70
2023/03/28 17:40:27;;;;;;;;;;;;;;;;;;10369814;28;1294;-70
2023/03/28 17:45:25;;;;;;;;;;;;;;;;;;10370809;28;1909;-71
2023/03/28 17:50:21;;;;;;;;;;;;;;;;;;10370425;28;861;-70
2023/03/28 17:55:17;;;;;;;;;;;;;;;;;;10370250;28;852;-70
2023/03/28 18:00:13;;;;;;;;;;;;;;;;;;10368330;28;978;-70
2023/03/28 18:05:09;;;;;;;;;;;;;;;;;;10369179;28;1950;-70
2023/03/28 18:10:05;;;;;;;;;;;;;;;;;;10369666;28;902;-70
2023/03/28 18:15:01;;;;;;;;;;;;;;;;;;10368733;28;765;-71
2023/03/28 18:19:57;;;;;;;;;;;;;;;;;;10368177;28;999;-72
2023/03/28 18:24:53;;;;;;;;;;;;;;;;;;10368458;28;1886;-76
2023/03/28 18:29:49;;;;;;;;;;;;;;;;;;10368384;28;767;-75
2023/03/28 18:34:45;;;;;;;;;;;;;;;;;;10368745;28;803;-77
2023/03/28 18:39:41;;;;;;;;;;;;;;;;;;10368041;28;1307;-75
2023/03/28 18:44:39;;;;;;;;;;;;;;;;;;10368338;28;1914;-75
2023/03/28 18:49:35;;;;;;;;;;;;;;;;;;10367830;28;881;-72
2023/03/28 18:54:31;;;;;;;;;;;;;;;;;;10367415;28;869;-75
2023/03/28 18:59:27;;;;;;;;;;;;;;;;;;10367334;28;777;-76
2023/03/28 19:04:24;;;;;;;;;;;;;;;;;;10367880;28;1886;-76
2023/03/28 19:09:20;;;;;;;;;;;;;;;;;;10367212;28;890;-75
2023/03/28 19:14:16;;;;;;;;;;;;;;;;;;10367211;28;889;-76
2023/03/28 19:19:13;;;;;;;;;;;;;;;;;;10366742;28;818;-76
2023/03/28 19:24:08;;;;;;;;;;;;;;;;;;10366462;28;1937;-76
2023/03/28 19:29:04;;;;;;;;;;;;;;;;;;10366495;28;842;-76
2023/03/28 19:34:00;;;;;;;;;;;;;;;;;;10366345;28;823;-76
2023/03/28 19:38:56;;;;;;;;;;;;;;;;;;10365918;28;1349;-75
2023/03/28 19:43:54;;;;;;;;;;;;;;;;;;10366141;28;1910;-75
2023/03/28 19:48:49;;;;;;;;;;;;;;;;;;10366657;28;823;-75
2023/03/28 19:53:45;;;;;;;;;;;;;;;;;;10366487;28;826;-75
2023/03/28 19:58:41;;;;;;;;;;;;;;;;;;10365871;28;886;-75
2023/03/28 20:03:37;;;;;;;;;;;;;;;;;;10365740;28;1945;-76
2023/03/28 20:08:33;;;;;;;;;;;;;;;;;;10366335;28;837;-75
2023/03/28 20:13:29;;;;;;;;;;;;;;;;;;10366546;28;834;-76
2023/03/28 20:18:25;;;;;;;;;;;;;;;;;;10365569;28;783;-76
2023/03/28 20:23:22;;;;;;;;;;;;;;;;;;10372186;28;1937;-76
2023/03/28 20:28:19;;;;;;;;;;;;;;;;;;10373727;28;892;-75
2023/03/28 20:33:15;;;;;;;;;;;;;;;;;;10373553;28;823;-75
2023/03/28 20:38:11;;;;;;;;;;;;;;;;;;10372820;28;799;-75
2023/03/28 20:43:10;;;;;;;;;;;;;;;;;;10372917;28;1989;-76
2023/03/28 20:48:09;;;;;;;;;;;;;;;;;;10372354;28;988;-76
2023/03/28 20:53:05;;;;;;;;;;;;;;;;;;10372775;28;901;-75
2023/03/28 20:58:00;;;;;;;;;;;;;;;;;;10372609;28;855;-75
2023/03/28 21:02:56;;;;;;;;;;;;;;;;;;10372448;28;1957;-75
2023/03/28 21:07:52;;;;;;;;;;;;;;;;;;10371679;28;775;-76
2023/03/28 21:12:49;;;;;;;;;;;;;;;;;;10371455;28;934;-76
2023/03/28 21:17:48;;;;;;;;;;;;;;;;;;10370815;28;1001;-76
2023/03/28 21:22:44;;;;;;;;;;;;;;;;;;10371532;28;1949;-75
2023/03/28 21:27:40;;;;;;;;;;;;;;;;;;10371508;28;834;-76
2023/03/28 21:32:36;;;;;;;;;;;;;;;;;;10370288;28;1058;-76
2023/03/28 21:37:32;;;;;;;;;;;;;;;;;;10371055;28;821;-76
2023/03/28 21:42:29;;;;;;;;;;;;;;;;;;10370453;28;1972;-76
2023/03/28 21:47:25;;;;;;;;;;;;;;;;;;10370037;28;850;-75
2023/03/28 21:52:21;;;;;;;;;;;;;;;;;;10369738;28;876;-75
2023/03/28 21:57:17;;;;;;;;;;;;;;;;;;10369083;28;913;-75
2023/03/28 22:02:13;;;;;;;;;;;;;;;;;;10369342;28;1935;-76
2023/03/28 22:07:09;;;;;;;;;;;;;;;;;;10369310;28;856;-76
2023/03/28 22:12:05;;;;;;;;;;;;;;;;;;10369044;28;972;-75
2023/03/28 22:17:01;;;;;;;;;;;;;;;;;;10369521;28;949;-75
2023/03/28 22:21:59;;;;;;;;;;;;;;;;;;10368703;28;1879;-76
2023/03/28 22:26:56;;;;;;;;;;;;;;;;;;10369152;28;915;-76
2023/03/28 22:31:52;;;;;;;;;;;;;;;;;;10368272;28;944;-76
2023/03/28 22:36:51;;;;;;;;;;;;;;;;;;10368904;28;818;-76
2023/03/28 22:41:47;;;;;;;;;;;;;;;;;;10367842;28;1910;-75
2023/03/28 22:46:43;;;;;;;;;;;;;;;;;;10367186;28;926;-76
2023/03/28 22:51:44;;;;;;;;;;;;;;;;;;10367055;28;882;-75
2023/03/28 22:56:41;;;;;;;;;;;;;;;;;;10368051;28;879;-75
2023/03/28 23:01:37;;;;;;;;;;;;;;;;;;10367333;28;1894;-76
2023/03/28 23:06:34;;;;;;;;;;;;;;;;;;10367105;28;771;-75
2023/03/28 23:11:30;;;;;;;;;;;;;;;;;;10367558;28;875;-76
2023/03/28 23:16:26;;;;;;;;;;;;;;;;;;10366845;28;795;-75
2023/03/28 23:21:23;;;;;;;;;;;;;;;;;;10366613;28;1886;-76
2023/03/28 23:26:19;;;;;;;;;;;;;;;;;;10366483;28;861;-76
2023/03/28 23:31:14;;;;;;;;;;;;;;;;;;10367149;28;890;-76
2023/03/28 23:36:12;;;;;;;;;;;;;;;;;;10366317;28;858;-76
2023/03/28 23:41:08;;;;;;;;;;;;;;;;;;10365899;28;1902;-75
2023/03/28 23:46:05;;;;;;;;;;;;;;;;;;10366964;28;1060;-75
2023/03/28 23:51:01;;;;;;;;;;;;;;;;;;10366694;28;803;-75
2023/03/28 23:55:57;;;;;;;;;;;;;;;;;;10370906;28;899;-76
